KSZTKLWS

Guest
Details From KSZT - Sandpoint
To KLWS - Lewiston Nez Perce Co
Flight Number -
Tags generated
Created
Modified
Stats Distance 117 nm / 217 km
Max Altitude 14,900 ft / 4,542 m
Waypoints 3
Social Downloads 0
Likes 0
Share VATSIM

Download

Looking for another format? Having issues loading an existing format? Contact us
Advertisement - Login to hide

Notes

Basic altitude profile: - Ascent Rate: 1000ft/min - Ascent Speed: 100kts - Cruise Altitude: 8500ft - Cruise Speed: 160kts - Descent Rate: 1000ft/min - Descent Speed: 160kts Options: - Use NATs: yes - Use PACOTS: yes - Use low airways: yes - Use high airways: yes

Route

KSZT HILIE KLWS

ID Type Via Altitude Latitude Longitude Leg Dist Tot Dist Heading (true) Name
O KSZT APT - 0 ft / 0 m 48.29954˚ -116.56014˚ - 0 nm - Sandpoint
HILIE FIX - 14,900 ft / 4,542 m 47.51815˚ -116.68970˚ 47 nm 47 nm 186° / 186° -
O KLWS APT - 0 ft / 0 m 46.37482˚ -117.01548˚ 69 nm 117 nm 191° / 191° Lewiston Nez Perce Co

Altitude Profile

Advertisement - Login to hide

KSZT

Details ICAO KSZT
Name Sandpoint
Region United States
Timezone America/Los_Angeles (UTC-8.0)
Stats Elevation 2,131 ft / 650 m (AMSL)
Location 48.299545° -116.560135°
Runways 1
Magnetic Variation 14.438° E

METAR

KSZT 121555Z AUTO 25004KT 10SM OVC010 M02/M03 A3055 RMK AO2

Decode

TAF

Not found

Departure Runways

ID Width Length Bearing (true) Bearing (mag) Surface Threshold Offset Overrun Length
01 75 ft / 23 m 5,496 ft / 1,675 m 32.04° 17.60° Asphalt 0 ft / 0 m 0 ft / 0 m
19 75 ft / 23 m 5,496 ft / 1,675 m 212.05° 197.61° Asphalt 0 ft / 0 m 0 ft / 0 m

KLWS

Details ICAO KLWS (LWS)
Name Lewiston Nez Perce Co
Region United States
Timezone America/Los_Angeles (UTC-8.0)
Stats Elevation 1,438 ft / 438 m (AMSL)
Location 46.374815° -117.015482°
Runways 2
Magnetic Variation 14.170° E

METAR

KLWS 121556Z 10007KT 10SM OVC016 M03/M05 A3061 RMK AO2 SLP386 T10281050

Decode

TAF

KLWS 121139Z 1212/1312 VRB03KT P6SM SCT008 OVC015

Decode

Destination Runways

ID Width Length Bearing (true) Bearing (mag) Surface Threshold Offset Overrun Length
08 150 ft / 46 m 6,494 ft / 1,980 m 98.81° 84.64° Asphalt 0 ft / 0 m 0 ft / 0 m
11 100 ft / 30 m 4,995 ft / 1,522 m 131.71° 117.54° Asphalt 0 ft / 0 m 0 ft / 0 m
26 150 ft / 46 m 6,494 ft / 1,980 m 278.83° 264.66° Asphalt 0 ft / 0 m 0 ft / 0 m
29 100 ft / 30 m 4,995 ft / 1,522 m 311.72° 297.55° Asphalt 0 ft / 0 m 0 ft / 0 m

Approach Navaids

Runway Type Ident Frequency Range Bearing (true) Bearing (mag) Slope Elevation
26 Localiser ILWS 109.70 MHz 18 nm / 33 km 278.81° 264.64° - 1,438 ft / 438 m (AMSL)
26 Glidescope ILWS 109.70 MHz 10 nm / 19 km 278.82° 264.65° 3.00° 1,434 ft / 437 m (AMSL)